Time;durP1;ratioP1;P1;durP2;ratioP2;P2;SDS_P1;SDS_P2;PMS_P1;PMS_P2;Temp;Humidity;BMP_temperature;BMP_pressure;BME280_temperature;BME280_humidity;BME280_pressure;Samples;Min_cycle;Max_cycle;Signal;HPM_P1;HPM_P2
2021/05/10 00:00:06;;;;;;;7.85;4.80;;;5.50;62.20;;;;;;4996308;28;20026;-89
2021/05/10 00:02:32;;;;;;;9.68;5.65;;;5.50;62.00;;;;;;4996369;28;20034;-89
2021/05/10 00:04:57;;;;;;;10.52;5.65;;;5.60;62.30;;;;;;4996362;28;20373;-90
2021/05/10 00:07:23;;;;;;;8.35;4.68;;;5.50;61.90;;;;;;4996253;28;20026;-89
2021/05/10 00:09:49;;;;;;;7.47;4.50;;;5.60;61.80;;;;;;4996187;28;20029;-88
2021/05/10 00:12:14;;;;;;;10.35;4.88;;;5.60;61.60;;;;;;4978202;28;20510;-88
2021/05/10 00:14:43;;;;;;;9.80;5.95;;;5.60;61.80;;;;;;4994799;28;20109;-89
2021/05/10 00:17:09;;;;;;;9.43;5.47;;;5.60;62.20;;;;;;4994812;28;20038;-90
2021/05/10 00:19:35;;;;;;;9.38;5.25;;;5.60;62.10;;;;;;4996128;28;20054;-88
2021/05/10 00:22:01;;;;;;;9.23;5.35;;;5.60;62.10;;;;;;4996310;28;20026;-88
2021/05/10 00:24:27;;;;;;;9.88;5.95;;;5.60;62.10;;;;;;4977992;28;20482;-89
2021/05/10 00:26:53;;;;;;;11.30;6.53;;;5.60;62.50;;;;;;4980089;28;20124;-89
2021/05/10 00:29:19;;;;;;;9.63;5.78;;;5.60;62.50;;;;;;4980173;28;20030;-89
2021/05/10 00:31:47;;;;;;;9.63;5.40;;;5.60;62.40;;;;;;4997555;28;20488;-89
2021/05/10 00:34:13;;;;;;;9.05;5.35;;;5.50;62.40;;;;;;4997587;28;20026;-89
2021/05/10 00:36:39;;;;;;;9.57;5.72;;;5.50;62.40;;;;;;4981782;28;20045;-90
2021/05/10 00:39:06;;;;;;;10.13;6.88;;;5.50;62.40;;;;;;5005568;28;20022;-86
2021/05/10 00:41:32;;;;;;;13.57;7.13;;;5.50;62.50;;;;;;5008524;28;20082;-87
2021/05/10 00:43:58;;;;;;;12.48;6.72;;;5.50;62.50;;;;;;5008727;28;20038;-87
2021/05/10 00:46:24;;;;;;;11.45;6.97;;;5.50;63.20;;;;;;5006912;28;20472;-90
2021/05/10 00:48:50;;;;;;;10.82;6.30;;;5.50;62.60;;;;;;4995871;28;20085;-89
2021/05/10 00:51:16;;;;;;;10.65;5.97;;;5.60;62.60;;;;;;4995887;28;20038;-89
2021/05/10 00:53:41;;;;;;;9.63;5.53;;;5.60;62.40;;;;;;4995542;28;20431;-90
2021/05/10 00:56:08;;;;;;;10.35;6.10;;;5.60;62.30;;;;;;4995410;28;20030;-89
2021/05/10 00:58:33;;;;;;;9.85;5.68;;;5.60;62.50;;;;;;4978008;28;20034;-89
2021/05/10 01:00:59;;;;;;;9.65;6.07;;;5.60;62.40;;;;;;4995395;28;20037;-90
2021/05/10 01:03:26;;;;;;;13.27;7.88;;;5.50;62.70;;;;;;4995366;28;20041;-90
2021/05/10 01:05:52;;;;;;;12.77;7.60;;;5.50;63.20;;;;;;4977786;28;20026;-90
2021/05/10 01:08:18;;;;;;;13.20;6.80;;;5.30;63.00;;;;;;4995013;28;20377;-90
2021/05/10 01:10:45;;;;;;;14.50;7.88;;;5.30;62.90;;;;;;4994964;28;20469;-90
2021/05/10 01:13:12;;;;;;;12.77;6.90;;;5.30;63.40;;;;;;4995335;28;20061;-90
2021/05/10 01:15:40;;;;;;;9.75;6.03;;;5.20;63.30;;;;;;4977495;28;20052;-90
2021/05/10 01:18:07;;;;;;;9.15;5.35;;;5.20;63.30;;;;;;4994902;28;20105;-90
2021/05/10 01:20:34;;;;;;;9.68;6.07;;;5.20;63.30;;;;;;4995424;28;20054;-90
2021/05/10 01:23:00;;;;;;;9.02;5.28;;;5.20;63.30;;;;;;4977464;28;20407;-88
2021/05/10 01:25:28;;;;;;;8.45;5.07;;;5.20;63.30;;;;;;4994784;28;20026;-90
2021/05/10 01:27:54;;;;;;;8.57;5.05;;;5.20;63.30;;;;;;4994766;28;20022;-90
2021/05/10 01:30:22;;;;;;;8.48;4.60;;;5.20;63.30;;;;;;4994800;28;20030;-90
2021/05/10 01:32:49;;;;;;;8.15;4.38;;;5.30;63.50;;;;;;4977419;28;20041;-90
2021/05/10 01:35:17;;;;;;;9.43;5.65;;;5.30;63.60;;;;;;4976666;28;20031;-90
2021/05/10 01:37:43;;;;;;;9.02;5.00;;;5.30;63.50;;;;;;4994536;28;20144;-89
2021/05/10 01:40:10;;;;;;;9.20;4.63;;;5.30;63.70;;;;;;4994701;28;20030;-90
2021/05/10 01:42:35;;;;;;;7.50;4.55;;;5.30;63.70;;;;;;4994538;28;20026;-90
2021/05/10 01:45:01;;;;;;;9.20;4.13;;;5.40;63.80;;;;;;4977553;28;20022;-89
2021/05/10 01:47:27;;;;;;;7.40;4.35;;;5.40;63.80;;;;;;4993981;28;20027;-90
2021/05/10 01:49:53;;;;;;;6.63;4.18;;;5.40;63.60;;;;;;4994395;28;20034;-89
2021/05/10 01:52:19;;;;;;;6.88;4.05;;;5.50;63.80;;;;;;4976748;28;20034;-90
2021/05/10 01:54:49;;;;;;;7.88;4.70;;;5.40;63.80;;;;;;4994357;28;20077;-90
2021/05/10 01:57:17;;;;;;;7.68;4.50;;;5.40;63.80;;;;;;4977043;28;20023;-90
2021/05/10 01:59:43;;;;;;;7.30;4.40;;;5.40;64.10;;;;;;4976799;28;20101;-90
2021/05/10 02:02:09;;;;;;;7.05;4.25;;;5.40;64.00;;;;;;4977135;28;20038;-90
2021/05/10 02:05:04;;;;;;;7.15;4.28;;;5.40;64.20;;;;;;4993106;28;20108;-90
2021/05/10 02:07:29;;;;;;;6.72;3.90;;;5.50;65.20;;;;;;4985683;28;20437;-89
2021/05/10 02:09:55;;;;;;;5.28;3.00;;;5.50;64.40;;;;;;4977026;28;20076;-90
2021/05/10 02:12:21;;;;;;;6.75;3.40;;;5.50;64.30;;;;;;4977653;28;20381;-90
2021/05/10 02:14:47;;;;;;;5.88;3.50;;;5.50;64.40;;;;;;4992961;28;20361;-89
2021/05/10 02:17:13;;;;;;;5.90;3.55;;;5.50;64.40;;;;;;4994416;28;20160;-89
2021/05/10 02:19:39;;;;;;;5.85;3.50;;;5.60;64.80;;;;;;4993926;28;20046;-88
2021/05/10 02:22:05;;;;;;;5.60;3.50;;;5.60;64.60;;;;;;4992898;28;20034;-90
2021/05/10 02:24:31;;;;;;;5.32;3.30;;;5.70;64.50;;;;;;4976790;28;20037;-89
2021/05/10 02:26:56;;;;;;;6.03;3.45;;;5.70;64.40;;;;;;4994090;28;20022;-89
2021/05/10 02:29:22;;;;;;;4.70;2.95;;;5.70;64.50;;;;;;4994064;28;20022;-90
2021/05/10 02:31:47;;;;;;;6.85;3.70;;;5.70;64.50;;;;;;4993824;28;20035;-90
2021/05/10 02:34:13;;;;;;;7.30;3.83;;;5.60;64.70;;;;;;4992829;28;20034;-90
2021/05/10 02:36:39;;;;;;;5.32;3.50;;;5.60;64.70;;;;;;4994039;28;20022;-89
2021/05/10 02:39:05;;;;;;;5.43;3.42;;;5.60;64.80;;;;;;4976578;28;20042;-90
2021/05/10 02:41:31;;;;;;;4.90;3.30;;;5.60;64.80;;;;;;4976386;28;20469;-89
2021/05/10 02:43:56;;;;;;;5.57;3.40;;;5.60;64.70;;;;;;4976459;28;20080;-89
2021/05/10 02:46:22;;;;;;;6.05;3.90;;;5.60;64.70;;;;;;4993896;28;20549;-89
2021/05/10 02:48:48;;;;;;;5.50;3.30;;;5.50;64.80;;;;;;4996532;28;20037;-90
2021/05/10 02:51:13;;;;;;;5.40;3.70;;;5.50;64.80;;;;;;4997532;28;20034;-92
2021/05/10 02:53:39;;;;;;;6.80;4.50;;;5.50;65.10;;;;;;4997969;28;20524;-90
2021/05/10 02:56:05;;;;;;;7.13;4.18;;;5.40;65.20;;;;;;5005103;28;20109;-89
2021/05/10 02:58:30;;;;;;;5.38;3.60;;;5.50;65.30;;;;;;4982308;28;20029;-89
2021/05/10 03:00:56;;;;;;;6.07;3.80;;;5.50;65.90;;;;;;4994389;28;20040;-90
2021/05/10 03:03:22;;;;;;;6.25;3.80;;;5.60;65.60;;;;;;5009126;28;20505;-89
2021/05/10 03:05:47;;;;;;;6.80;4.28;;;5.60;65.30;;;;;;4998237;28;20408;-89
2021/05/10 03:08:13;;;;;;;6.70;4.00;;;5.60;65.50;;;;;;4997814;28;20384;-90
2021/05/10 03:10:39;;;;;;;7.20;4.10;;;5.60;65.80;;;;;;4997097;28;20500;-89
2021/05/10 03:13:04;;;;;;;6.72;4.38;;;5.70;65.90;;;;;;4997051;28;20366;-89
2021/05/10 03:15:30;;;;;;;5.15;3.60;;;5.70;65.80;;;;;;4979823;28;20050;-90
2021/05/10 03:17:56;;;;;;;6.88;4.07;;;5.80;65.70;;;;;;4980251;28;20036;-90
2021/05/10 03:20:24;;;;;;;7.25;4.50;;;5.80;65.60;;;;;;5005838;28;20077;-90
2021/05/10 03:22:52;;;;;;;5.00;3.35;;;5.80;65.50;;;;;;4999927;28;20027;-89
2021/05/10 03:25:22;;;;;;;5.40;3.88;;;5.80;65.50;;;;;;4996546;28;20027;-89
2021/05/10 03:27:50;;;;;;;6.67;4.03;;;5.80;65.70;;;;;;4995050;28;20027;-89
2021/05/10 03:30:18;;;;;;;6.10;4.20;;;5.80;65.70;;;;;;4980230;28;20411;-89
2021/05/10 03:32:46;;;;;;;6.20;4.30;;;5.80;65.80;;;;;;4976564;28;20608;-88
2021/05/10 03:35:14;;;;;;;5.55;4.00;;;5.80;65.80;;;;;;4977661;28;20035;-88
2021/05/10 03:37:40;;;;;;;6.10;4.00;;;5.90;65.90;;;;;;4976576;28;20023;-89
2021/05/10 03:40:10;;;;;;;7.40;4.65;;;5.90;65.90;;;;;;4976414;28;20031;-89
2021/05/10 03:42:37;;;;;;;6.28;4.00;;;5.90;65.90;;;;;;4976207;28;20027;-89
2021/05/10 03:45:03;;;;;;;6.85;4.20;;;6.00;66.00;;;;;;4976335;28;20065;-88
2021/05/10 03:48:02;;;;;;;5.82;3.75;;;6.00;66.00;;;;;;4976457;28;20023;-89
2021/05/10 03:50:22;;;;;;;5.60;3.58;;;6.00;65.90;;;;;;4975005;28;20035;-88
2021/05/10 03:52:50;;;;;;;6.80;4.28;;;6.00;65.90;;;;;;4976995;28;20110;-88
2021/05/10 03:55:18;;;;;;;7.63;4.28;;;6.10;66.10;;;;;;4976938;28;20034;-89
2021/05/10 03:57:44;;;;;;;6.50;4.15;;;6.20;66.00;;;;;;4975927;28;20366;-88
2021/05/10 04:00:12;;;;;;;7.47;4.50;;;6.20;66.10;;;;;;4976790;28;20027;-90
2021/05/10 04:02:39;;;;;;;6.53;3.92;;;6.20;66.00;;;;;;4975944;28;20045;-90
2021/05/10 04:15:45;;;;;;;6.07;3.17;;;6.70;65.90;;;;;;4976822;28;20041;-90
2021/05/10 04:18:11;;;;;;;7.72;4.13;;;6.80;65.80;;;;;;4976674;28;20027;-90
2021/05/10 04:20:37;;;;;;;6.47;3.65;;;6.90;65.80;;;;;;4993030;28;20054;-88
2021/05/10 04:23:02;;;;;;;5.35;3.40;;;7.00;65.70;;;;;;4978435;28;20366;-89
2021/05/10 04:25:28;;;;;;;5.90;3.58;;;7.10;65.70;;;;;;4996167;28;20030;-89
2021/05/10 04:27:54;;;;;;;7.07;4.00;;;7.20;65.70;;;;;;4978739;28;20196;-90
2021/05/10 04:30:20;;;;;;;6.05;3.50;;;7.30;65.70;;;;;;4981475;28;20041;-89
2021/05/10 04:32:45;;;;;;;5.70;3.42;;;7.40;65.70;;;;;;4981533;28;20049;-88
2021/05/10 04:35:12;;;;;;;5.75;3.55;;;7.50;65.70;;;;;;4981741;28;20022;-90
2021/05/10 04:37:41;;;;;;;6.13;3.60;;;7.70;65.70;;;;;;5001763;28;20463;-86
2021/05/10 04:40:08;;;;;;;6.53;3.88;;;7.80;65.80;;;;;;5006171;28;20073;-86
2021/05/10 04:42:36;;;;;;;6.47;3.90;;;7.90;65.70;;;;;;4990429;28;20034;-87
2021/05/10 04:45:03;;;;;;;6.43;3.80;;;8.00;65.70;;;;;;4992060;28;20037;-88
2021/05/10 04:47:36;;;;;;;6.85;3.78;;;8.20;65.60;;;;;;4986792;28;20487;-89
2021/05/10 04:50:13;;;;;;;6.60;3.78;;;8.30;65.60;;;;;;4994611;28;20092;-89
2021/05/10 04:52:39;;;;;;;6.28;3.97;;;8.40;65.70;;;;;;4978216;28;20053;-90
2021/05/10 04:55:18;;;;;;;7.28;3.88;;;8.50;65.50;;;;;;4995694;28;20105;-89
2021/05/10 04:57:45;;;;;;;5.90;3.95;;;8.60;65.80;;;;;;4978543;28;20022;-89
2021/05/10 05:00:15;;;;;;;6.38;3.97;;;8.70;65.50;;;;;;4995974;28;20041;-90
2021/05/10 05:02:44;;;;;;;7.03;4.50;;;8.80;65.40;;;;;;4978551;28;20034;-89
2021/05/10 05:05:11;;;;;;;8.27;4.88;;;9.00;66.20;;;;;;4994325;28;20117;-89
2021/05/10 05:07:40;;;;;;;8.77;4.63;;;9.10;65.50;;;;;;4977715;28;20022;-89
2021/05/10 05:10:08;;;;;;;7.05;4.88;;;9.20;65.50;;;;;;4978653;28;20380;-91
2021/05/10 05:12:39;;;;;;;9.40;5.57;;;9.30;65.40;;;;;;4996405;28;20042;-88
2021/05/10 05:15:10;;;;;;;9.02;5.28;;;9.50;65.40;;;;;;5001701;28;20046;-85
2021/05/10 05:17:36;;;;;;;10.82;6.10;;;9.60;65.40;;;;;;4979119;28;20105;-84
2021/05/10 05:20:07;;;;;;;8.30;4.72;;;9.70;65.30;;;;;;4995407;28;20131;-86
2021/05/10 05:22:34;;;;;;;8.18;4.75;;;9.80;65.30;;;;;;4977513;28;20034;-86
2021/05/10 05:25:00;;;;;;;7.55;4.57;;;10.00;65.70;;;;;;4994986;28;20057;-87
2021/05/10 05:27:25;;;;;;;10.55;4.25;;;10.10;65.00;;;;;;4994302;28;20058;-86
2021/05/10 05:29:51;;;;;;;7.65;4.72;;;10.20;64.80;;;;;;4994589;28;20041;-86
2021/05/10 05:32:21;;;;;;;9.05;5.20;;;10.40;64.70;;;;;;4994682;28;20045;-86
2021/05/10 05:34:50;;;;;;;7.80;4.53;;;10.50;64.50;;;;;;4994552;28;20487;-86
2021/05/10 05:37:16;;;;;;;8.70;5.03;;;10.60;64.30;;;;;;4994872;28;20066;-86
2021/05/10 05:39:45;;;;;;;9.93;5.28;;;10.80;64.20;;;;;;4994551;28;20038;-86
2021/05/10 05:42:10;;;;;;;9.82;5.00;;;10.90;63.80;;;;;;4976840;28;20033;-86
2021/05/10 05:44:37;;;;;;;10.35;4.75;;;11.00;63.50;;;;;;4994358;28;20027;-87
2021/05/10 05:47:15;;;;;;;8.18;4.80;;;11.10;63.10;;;;;;4994272;28;20040;-86
2021/05/10 05:49:40;;;;;;;10.75;4.50;;;11.30;62.80;;;;;;4994563;28;20037;-86
2021/05/10 05:52:06;;;;;;;7.45;3.72;;;11.40;62.20;;;;;;4994688;28;20035;-85
2021/05/10 05:54:33;;;;;;;5.88;3.03;;;11.50;61.10;;;;;;4994521;28;20049;-87
2021/05/10 05:56:59;;;;;;;6.22;3.15;;;11.60;60.40;;;;;;4994234;28;20030;-87
2021/05/10 05:59:25;;;;;;;4.88;2.90;;;11.70;59.50;;;;;;4994233;28;20113;-86
2021/05/10 06:01:52;;;;;;;6.85;3.05;;;11.80;59.10;;;;;;4994257;28;20053;-86
2021/05/10 06:04:18;;;;;;;5.13;2.90;;;11.90;58.50;;;;;;4994209;28;20058;-87
2021/05/10 06:06:43;;;;;;;6.43;2.80;;;12.00;58.20;;;;;;4994372;28;20496;-85
2021/05/10 06:09:12;;;;;;;4.55;2.78;;;12.10;57.50;;;;;;4994146;28;20026;-87
2021/05/10 06:11:38;;;;;;;5.35;2.83;;;12.20;57.40;;;;;;4976684;28;20047;-87
2021/05/10 06:14:06;;;;;;;9.98;3.63;;;12.30;57.30;;;;;;4994067;28;20062;-87
2021/05/10 06:16:32;;;;;;;7.28;3.58;;;12.50;57.10;;;;;;4994105;28;20600;-87
2021/05/10 06:19:01;;;;;;;7.30;3.25;;;12.60;56.70;;;;;;4976412;28;20055;-86
2021/05/10 06:21:27;;;;;;;9.27;3.65;;;12.70;56.60;;;;;;4994380;28;20054;-88
2021/05/10 06:23:53;;;;;;;10.85;5.43;;;12.80;56.30;;;;;;4980010;28;20049;-87
2021/05/10 06:26:20;;;;;;;10.55;5.07;;;12.90;55.80;;;;;;4980582;28;20432;-87
2021/05/10 06:28:46;;;;;;;9.85;5.15;;;13.00;55.70;;;;;;4980259;28;20125;-88
2021/05/10 06:31:11;;;;;;;10.25;4.78;;;13.10;55.40;;;;;;4997608;28;20118;-87
2021/05/10 06:33:38;;;;;;;8.82;4.30;;;13.20;54.90;;;;;;4995733;28;20129;-87
2021/05/10 06:36:04;;;;;;;9.50;4.60;;;13.30;54.60;;;;;;4997732;28;20033;-87
2021/05/10 06:38:33;;;;;;;8.50;3.90;;;13.40;54.20;;;;;;4980000;28;20057;-87
2021/05/10 06:40:59;;;;;;;6.40;3.30;;;13.40;53.90;;;;;;4997833;28;20369;-87
2021/05/10 06:43:25;;;;;;;5.55;2.95;;;13.50;53.70;;;;;;4980235;28;20034;-87
2021/05/10 06:45:51;;;;;;;6.03;3.17;;;13.60;53.50;;;;;;4997417;28;20030;-87
2021/05/10 06:48:30;;;;;;;6.43;3.20;;;13.70;52.90;;;;;;4997470;28;20022;-87
2021/05/10 06:50:56;;;;;;;5.80;2.85;;;13.80;51.60;;;;;;4981615;28;20058;-86
2021/05/10 06:53:22;;;;;;;7.95;3.60;;;13.90;52.50;;;;;;5000160;28;20544;-87
2021/05/10 06:55:52;;;;;;;6.05;3.55;;;14.00;52.10;;;;;;4987147;28;20034;-84
2021/05/10 06:58:18;;;;;;;8.48;3.42;;;14.10;52.00;;;;;;4984517;28;20535;-86
2021/05/10 07:00:45;;;;;;;4.63;2.75;;;14.20;51.70;;;;;;4980227;28;20053;-88
2021/05/10 07:03:11;;;;;;;5.82;2.97;;;14.30;51.60;;;;;;4997946;28;20532;-86
2021/05/10 07:05:40;;;;;;;4.40;2.40;;;14.40;51.50;;;;;;4998221;28;20035;-87
2021/05/10 07:08:13;;;;;;;3.85;2.28;;;14.50;51.30;;;;;;4998538;28;20030;-87
2021/05/10 07:10:42;;;;;;;3.28;2.15;;;14.70;51.10;;;;;;4998194;28;20048;-87
2021/05/10 07:13:10;;;;;;;2.67;1.90;;;14.80;50.30;;;;;;4980864;28;20022;-87
2021/05/10 07:15:36;;;;;;;2.60;1.80;;;14.90;50.30;;;;;;4997487;28;20069;-85
2021/05/10 07:18:11;;;;;;;2.67;1.77;;;15.00;49.30;;;;;;4997070;28;20023;-86
2021/05/10 07:20:38;;;;;;;2.75;1.70;;;15.10;49.00;;;;;;4997076;28;20129;-85
2021/05/10 07:23:05;;;;;;;2.05;1.27;;;15.10;48.50;;;;;;4979528;28;20484;-85
2021/05/10 07:25:32;;;;;;;2.92;1.20;;;15.20;48.60;;;;;;4979211;28;20030;-88
2021/05/10 07:27:58;;;;;;;1.15;0.95;;;15.20;48.60;;;;;;4996832;28;20022;-86
2021/05/10 07:30:24;;;;;;;1.23;1.10;;;15.30;48.30;;;;;;4978792;28;20100;-88
2021/05/10 07:32:50;;;;;;;1.10;1.00;;;15.40;47.70;;;;;;4978988;28;20030;-88
2021/05/10 07:35:15;;;;;;;1.13;1.00;;;15.50;47.30;;;;;;4978577;28;20032;-87
2021/05/10 07:37:41;;;;;;;1.13;1.00;;;15.50;47.40;;;;;;4995458;28;20061;-86
2021/05/10 07:40:08;;;;;;;1.00;0.90;;;15.60;47.30;;;;;;4996371;28;20023;-88
2021/05/10 07:42:34;;;;;;;1.13;0.98;;;15.70;46.90;;;;;;4979196;28;20038;-88
2021/05/10 07:45:00;;;;;;;1.90;1.25;;;15.70;47.00;;;;;;4979048;28;20022;-87
2021/05/10 07:47:29;;;;;;;2.20;1.20;;;15.80;46.40;;;;;;4999746;28;20034;-87
2021/05/10 07:49:56;;;;;;;1.15;0.73;;;15.80;46.10;;;;;;4998419;28;20065;-88
2021/05/10 07:52:21;;;;;;;0.95;0.80;;;15.80;46.30;;;;;;4978689;28;20027;-86
2021/05/10 07:54:47;;;;;;;0.82;0.70;;;15.90;46.40;;;;;;4995953;28;20101;-86
2021/05/10 07:57:12;;;;;;;1.20;1.10;;;16.00;46.50;;;;;;4996404;28;20038;-87
2021/05/10 07:59:38;;;;;;;1.52;1.33;;;16.10;46.20;;;;;;4996129;28;20030;-87
2021/05/10 08:02:05;;;;;;;1.30;1.15;;;16.30;46.00;;;;;;4978815;28;20131;-87
2021/05/10 08:04:31;;;;;;;1.15;0.90;;;16.50;46.50;;;;;;4996257;28;20027;-86
2021/05/10 08:06:58;;;;;;;1.90;1.27;;;16.70;47.60;;;;;;4996176;28;20156;-87
2021/05/10 08:09:23;;;;;;;2.45;1.20;;;17.10;48.60;;;;;;4996611;28;20033;-87
2021/05/10 08:11:49;;;;;;;1.60;1.10;;;17.50;49.10;;;;;;4978381;28;20038;-87
2021/05/10 08:14:16;;;;;;;1.70;1.25;;;17.90;49.50;;;;;;4996448;28;20069;-87
2021/05/10 08:16:42;;;;;;;1.15;1.05;;;18.30;50.00;;;;;;4996400;28;20511;-86
2021/05/10 08:19:26;;;;;;;2.05;1.50;;;18.70;50.70;;;;;;4978400;28;20070;-86
2021/05/10 08:21:53;;;;;;;1.10;1.00;;;19.20;51.60;;;;;;4978940;28;20066;-87
2021/05/10 08:24:19;;;;;;;1.88;1.40;;;19.70;51.90;;;;;;4978185;28;20027;-86
2021/05/10 08:26:45;;;;;;;2.60;1.77;;;20.20;51.20;;;;;;4995764;28;20105;-84
2021/05/10 08:29:10;;;;;;;1.60;1.38;;;20.40;49.30;;;;;;4995547;28;20068;-85
2021/05/10 08:31:36;;;;;;;1.30;1.20;;;20.60;49.30;;;;;;4977867;28;20381;-86
2021/05/10 08:34:02;;;;;;;1.48;1.30;;;20.80;48.60;;;;;;4978026;28;20120;-84
2021/05/10 08:36:27;;;;;;;1.40;1.30;;;21.00;47.60;;;;;;4995555;28;20368;-86
2021/05/10 08:38:55;;;;;;;1.15;1.05;;;21.20;47.20;;;;;;4995911;28;20485;-85
2021/05/10 08:41:22;;;;;;;3.63;1.45;;;21.40;47.00;;;;;;4995353;28;20030;-85
2021/05/10 08:43:47;;;;;;;2.08;1.67;;;21.50;46.30;;;;;;4978108;28;20120;-85
2021/05/10 08:46:13;;;;;;;2.17;1.40;;;21.80;46.20;;;;;;4995096;28;20432;-83
2021/05/10 08:48:39;;;;;;;2.28;1.50;;;22.00;45.60;;;;;;4995018;28;20027;-84
2021/05/10 08:51:05;;;;;;;5.13;1.40;;;22.10;45.10;;;;;;4994855;28;20042;-85
2021/05/10 08:53:38;;;;;;;2.40;1.42;;;22.20;45.00;;;;;;4995294;28;20076;-84
2021/05/10 08:56:05;;;;;;;2.25;1.80;;;22.30;43.00;;;;;;4995350;28;20026;-84
2021/05/10 08:58:40;;;;;;;2.03;1.83;;;22.40;43.70;;;;;;4995214;28;20023;-84
2021/05/10 09:01:07;;;;;;;2.80;1.60;;;22.60;42.00;;;;;;4994801;28;20470;-84
2021/05/10 09:03:44;;;;;;;1.73;1.45;;;22.60;42.70;;;;;;4977705;28;20043;-85
2021/05/10 09:06:12;;;;;;;2.00;1.30;;;22.70;42.60;;;;;;4995012;28;20026;-84
2021/05/10 09:08:49;;;;;;;3.20;2.33;;;22.80;42.40;;;;;;4993696;28;20030;-84
2021/05/10 09:11:19;;;;;;;2.53;1.58;;;23.00;36.70;;;;;;4994761;28;20038;-84
2021/05/10 09:13:46;;;;;;;1.63;1.52;;;23.10;41.10;;;;;;4995037;28;20061;-82
2021/05/10 09:16:14;;;;;;;1.48;1.25;;;23.30;41.20;;;;;;4995213;28;20058;-83
2021/05/10 09:18:49;;;;;;;1.63;1.30;;;23.30;40.30;;;;;;4994451;28;20426;-84
2021/05/10 09:21:19;;;;;;;1.35;1.25;;;23.30;39.70;;;;;;4994815;28;20034;-84
2021/05/10 09:23:50;;;;;;;1.30;1.20;;;23.40;39.60;;;;;;4977198;28;20038;-87
2021/05/10 09:26:33;;;;;;;1.85;1.30;;;23.30;37.80;;;;;;4994845;28;20030;-86
2021/05/10 09:29:04;;;;;;;4.75;3.88;;;23.40;36.90;;;;;;4995122;28;20057;-86
2021/05/10 09:31:46;;;;;;;3.80;3.30;;;23.40;38.70;;;;;;4994192;28;20039;-85
2021/05/10 09:34:15;;;;;;;2.63;2.20;;;23.60;38.50;;;;;;4994483;28;20081;-86
2021/05/10 09:36:40;;;;;;;2.28;1.88;;;23.70;37.80;;;;;;4994448;28;20153;-86
2021/05/10 09:39:29;;;;;;;1.38;1.27;;;23.60;36.80;;;;;;4994258;28;20035;-87
2021/05/10 09:41:59;;;;;;;1.40;1.30;;;23.60;32.90;;;;;;4994441;28;20133;-86
2021/05/10 09:44:45;;;;;;;1.70;1.38;;;23.70;36.70;;;;;;4994513;28;20026;-85
2021/05/10 09:47:32;;;;;;;3.90;1.52;;;23.90;31.30;;;;;;4976499;28;20037;-86
2021/05/10 09:49:58;;;;;;;1.35;1.25;;;23.90;32.10;;;;;;4993205;28;20023;-85
2021/05/10 09:52:27;;;;;;;3.42;1.27;;;23.90;36.20;;;;;;4976579;28;20081;-84
2021/05/10 09:55:00;;;;;;;1.30;1.20;;;24.10;35.90;;;;;;4977000;28;20022;-85
2021/05/10 09:57:46;;;;;;;1.85;1.45;;;24.20;36.00;;;;;;4975896;28;20034;-85
2021/05/10 10:00:20;;;;;;;1.70;1.17;;;24.40;35.80;;;;;;4976671;28;20023;-85
2021/05/10 10:02:49;;;;;;;1.88;1.30;;;24.50;33.40;;;;;;4994143;28;20392;-86
2021/05/10 10:05:15;;;;;;;1.50;1.40;;;24.70;35.10;;;;;;4995092;28;20113;-87
2021/05/10 10:07:43;;;;;;;1.38;1.23;;;24.70;34.40;;;;;;4976920;28;20030;-85
2021/05/10 10:10:13;;;;;;;2.67;1.27;;;24.90;34.40;;;;;;4995021;28;20034;-85
2021/05/10 10:12:39;;;;;;;1.40;1.23;;;25.00;34.50;;;;;;4977689;28;20125;-87
2021/05/10 10:15:05;;;;;;;1.50;1.23;;;25.20;34.80;;;;;;4977805;28;20085;-85
2021/05/10 10:17:37;;;;;;;1.52;1.27;;;25.40;34.30;;;;;;4994765;28;20027;-87
2021/05/10 10:20:04;;;;;;;1.92;1.25;;;25.50;33.60;;;;;;4974462;28;20477;-85
2021/05/10 10:22:33;;;;;;;1.20;1.10;;;25.50;33.30;;;;;;4982930;28;20042;-84
2021/05/10 10:25:02;;;;;;;1.27;1.17;;;25.50;33.20;;;;;;4986590;28;20027;-86
2021/05/10 10:27:29;;;;;;;1.70;1.40;;;25.60;32.80;;;;;;4976882;28;20023;-87
2021/05/10 10:29:56;;;;;;;1.33;1.23;;;25.60;32.80;;;;;;4974450;28;20035;-86
2021/05/10 10:32:23;;;;;;;1.40;1.30;;;25.70;32.70;;;;;;4974593;28;20478;-86
2021/05/10 10:34:53;;;;;;;2.70;1.23;;;25.80;32.70;;;;;;4974639;28;20030;-89
2021/05/10 10:37:25;;;;;;;3.42;1.60;;;26.00;32.40;;;;;;4973939;28;20031;-88
2021/05/10 10:40:02;;;;;;;1.67;1.38;;;26.10;31.20;;;;;;4976227;28;20078;-90
2021/05/10 10:42:33;;;;;;;2.28;1.20;;;26.00;30.90;;;;;;4974929;28;20039;-88
2021/05/10 10:45:04;;;;;;;1.75;1.10;;;26.00;31.60;;;;;;4977816;28;20106;-89
2021/05/10 10:47:44;;;;;;;10.15;1.23;;;25.90;31.50;;;;;;4981203;28;20090;-90
2021/05/10 10:50:17;;;;;;;2.22;1.10;;;26.00;29.80;;;;;;4983248;28;20377;-89
2021/05/10 10:52:49;;;;;;;2.05;1.20;;;26.00;31.30;;;;;;4981532;28;20062;-89
2021/05/10 10:55:19;;;;;;;1.35;1.10;;;26.20;31.30;;;;;;4979809;28;20031;-91
2021/05/10 10:57:44;;;;;;;;;;;26.40;31.30;;;;;;4991102;28;20035;-88
2021/05/10 11:00:16;;;;;;;1.45;1.35;;;26.20;26.70;;;;;;4987638;28;19906;-88
2021/05/10 11:02:54;;;;;;;1.95;1.25;;;26.20;30.90;;;;;;4980030;28;20062;-89
2021/05/10 11:05:22;;;;;;;1.10;1.00;;;26.50;28.50;;;;;;4980961;28;20031;-88
2021/05/10 11:08:03;;;;;;;1.98;0.98;;;26.50;30.10;;;;;;4975519;28;20050;-88
2021/05/10 11:10:52;;;;;;;1.80;0.95;;;26.60;27.30;;;;;;4978298;28;20031;-89
2021/05/10 11:13:28;;;;;;;0.95;0.95;;;26.60;27.80;;;;;;4979948;28;20026;-89
2021/05/10 11:16:02;;;;;;;2.95;1.25;;;26.70;28.10;;;;;;4980429;28;20031;-89
2021/05/10 11:18:55;;;;;;;1.77;1.42;;;26.70;27.50;;;;;;4980354;28;20054;-87
2021/05/10 11:21:25;;;;;;;1.38;1.10;;;26.80;26.00;;;;;;4978791;28;20049;-88
2021/05/10 11:23:55;;;;;;;0.93;0.93;;;26.80;29.00;;;;;;4981605;28;20458;-88
2021/05/10 11:26:39;;;;;;;1.65;1.20;;;26.90;29.00;;;;;;4979946;28;20037;-89
2021/05/10 11:29:10;;;;;;;1.20;1.10;;;27.00;27.20;;;;;;4978764;28;20122;-89
2021/05/10 11:31:45;;;;;;;1.48;1.20;;;27.00;28.30;;;;;;4977720;28;20121;-88
2021/05/10 11:34:12;;;;;;;1.35;1.25;;;27.00;27.40;;;;;;4979679;28;20035;-88
2021/05/10 11:36:50;;;;;;;1.17;1.05;;;27.00;28.50;;;;;;4996496;28;20027;-87
2021/05/10 11:39:23;;;;;;;3.08;2.30;;;27.00;27.30;;;;;;4979867;28;20141;-89
2021/05/10 11:41:50;;;;;;;2.00;1.70;;;26.90;28.40;;;;;;4978524;28;20572;-89
2021/05/10 11:44:26;;;;;;;1.58;1.33;;;27.10;28.50;;;;;;4979325;28;20477;-88
2021/05/10 11:46:59;;;;;;;1.20;1.08;;;27.20;27.90;;;;;;4976837;28;20026;-88
2021/05/10 11:49:30;;;;;;;1.23;1.00;;;27.30;28.10;;;;;;4976853;28;20063;-88
2021/05/10 11:52:20;;;;;;;1.45;1.35;;;27.40;28.20;;;;;;4976974;28;20035;-88
2021/05/10 11:54:47;;;;;;;2.22;1.20;;;27.20;27.80;;;;;;4971146;28;20069;-87
2021/05/10 11:57:19;;;;;;;1.77;0.95;;;27.20;27.50;;;;;;4977214;28;20484;-86
2021/05/10 11:59:51;;;;;;;1.98;1.30;;;27.10;27.70;;;;;;4976799;28;20027;-85
2021/05/10 12:02:27;;;;;;;2.05;1.00;;;27.10;27.70;;;;;;4978348;28;20050;-88
2021/05/10 12:04:58;;;;;;;0.98;0.95;;;27.30;27.70;;;;;;4977610;28;20373;-87
2021/05/10 12:07:26;;;;;;;1.20;1.10;;;27.40;26.80;;;;;;4976003;28;20133;-88
2021/05/10 12:09:56;;;;;;;3.30;1.40;;;27.40;27.20;;;;;;4975939;28;20030;-88
2021/05/10 12:12:27;;;;;;;1.25;1.15;;;27.40;27.00;;;;;;4977324;28;20366;-87
2021/05/10 12:14:55;;;;;;;0.90;0.90;;;27.50;27.10;;;;;;4992122;28;20039;-86
2021/05/10 12:17:27;;;;;;;1.98;1.08;;;27.60;27.20;;;;;;4975786;28;20041;-87
2021/05/10 12:20:04;;;;;;;3.42;1.00;;;27.90;27.00;;;;;;4987519;28;20137;-86
2021/05/10 12:22:48;;;;;;;2.25;2.05;;;28.00;26.10;;;;;;4963493;28;20047;-86
2021/05/10 12:25:22;;;;;;;1.45;1.35;;;28.10;27.10;;;;;;4979603;28;20118;-87
2021/05/10 12:28:14;;;;;;;1.30;1.20;;;28.20;26.90;;;;;;4996116;28;20165;-88
2021/05/10 12:30:54;;;;;;;1.67;1.27;;;28.40;25.00;;;;;;4978162;28;20042;-85
2021/05/10 12:33:23;;;;;;;1.50;1.33;;;28.50;26.50;;;;;;4996070;28;20489;-86
2021/05/10 12:35:49;;;;;;;1.45;1.35;;;28.50;26.80;;;;;;4995886;28;20033;-85
2021/05/10 12:38:30;;;;;;;1.45;1.23;;;28.70;26.70;;;;;;4978461;28;20031;-86
2021/05/10 12:40:57;;;;;;;1.40;1.30;;;28.80;24.70;;;;;;4978450;28;20026;-87
2021/05/10 12:43:26;;;;;;;1.17;1.08;;;28.80;26.40;;;;;;4980039;28;20465;-87
2021/05/10 12:45:57;;;;;;;1.10;1.00;;;28.80;26.30;;;;;;5000001;28;20030;-86
2021/05/10 12:48:30;;;;;;;1.10;1.00;;;28.60;25.80;;;;;;4996458;28;20038;-87
2021/05/10 12:51:07;;;;;;;1.52;1.27;;;28.60;25.70;;;;;;4995330;28;20037;-88
2021/05/10 12:53:41;;;;;;;1.52;1.33;;;28.70;25.10;;;;;;4995867;28;20041;-85
2021/05/10 12:56:10;;;;;;;1.35;1.25;;;28.70;26.10;;;;;;4996010;28;20066;-87
2021/05/10 12:58:41;;;;;;;1.50;1.27;;;28.80;26.00;;;;;;4995576;28;20026;-84
2021/05/10 13:01:10;;;;;;;1.48;1.20;;;28.80;25.80;;;;;;4995195;28;20030;-87
2021/05/10 13:03:35;;;;;;;1.60;1.20;;;28.70;25.90;;;;;;4998846;28;20034;-87
2021/05/10 13:06:03;;;;;;;0.95;0.95;;;28.60;25.80;;;;;;4977417;28;20045;-86
2021/05/10 13:08:42;;;;;;;2.20;1.10;;;28.70;26.00;;;;;;4995159;28;20037;-86